Time;durP1;ratioP1;P1;durP2;ratioP2;P2;SDS_P1;SDS_P2;PMS_P1;PMS_P2;Temp;Humidity;BMP_temperature;BMP_pressure;BME280_temperature;BME280_humidity;BME280_pressure;Samples;Min_cycle;Max_cycle;Signal;HPM_P1;HPM_P2
2023/05/04 00:00:03;;;;;;;3.40;0.90;;;15.60;99.90;;;16.07;48.23;101811.63;6080256;22;97467;-46
2023/05/04 00:02:30;;;;;;;0.70;0.50;;;15.50;99.90;;;16.05;48.54;101816.97;6057468;23;96981;-49
2023/05/04 00:04:56;;;;;;;0.97;0.70;;;15.50;99.90;;;16.04;48.69;101803.72;6081917;23;97808;-50
2023/05/04 00:07:22;;;;;;;1.30;0.67;;;15.50;99.90;;;16.03;48.69;101804.66;6087774;23;97717;-43
2023/05/04 00:09:49;;;;;;;2.10;1.00;;;15.50;99.90;;;16.05;48.36;101794.81;6079486;22;97784;-44
2023/05/04 00:12:15;;;;;;;1.57;0.70;;;15.60;99.90;;;16.04;48.63;101803.72;6087978;22;96715;-43
2023/05/04 00:14:41;;;;;;;2.00;0.90;;;15.50;99.90;;;16.00;48.65;101787.03;6084496;22;98980;-44
2023/05/04 00:17:07;;;;;;;1.10;0.80;;;15.50;99.90;;;15.99;48.50;101789.75;6084594;22;97566;-44
2023/05/04 00:19:35;;;;;;;2.77;1.13;;;15.50;99.90;;;15.95;48.56;101798.78;6088279;22;97002;-43
2023/05/04 00:22:01;;;;;;;1.87;0.87;;;15.40;99.90;;;15.92;49.08;101789.13;6081541;22;97588;-44
2023/05/04 00:24:28;;;;;;;1.03;0.53;;;15.40;99.90;;;15.89;48.88;101791.03;6083313;23;100303;-45
2023/05/04 00:26:54;;;;;;;2.93;1.03;;;15.30;99.90;;;15.85;48.77;101789.44;6082916;23;97135;-45
2023/05/04 00:29:20;;;;;;;2.97;1.00;;;15.20;99.90;;;15.83;49.25;101793.94;6085219;22;97346;-44
2023/05/04 00:31:46;;;;;;;0.70;0.50;;;15.20;99.90;;;15.80;49.17;101786.09;6085993;23;97945;-43
2023/05/04 00:34:12;;;;;;;3.53;1.47;;;15.20;99.90;;;15.80;48.85;101789.63;6081287;22;98181;-42
2023/05/04 00:36:37;;;;;;;1.33;1.10;;;15.20;99.90;;;15.77;49.02;101787.09;6085172;22;97324;-43
2023/05/04 00:39:03;;;;;;;1.03;0.80;;;15.20;99.90;;;15.73;49.40;101781.00;6083732;22;97919;-42
2023/05/04 00:41:29;;;;;;;4.07;1.10;;;15.20;99.90;;;15.73;49.43;101781.00;6088972;22;97471;-43
2023/05/04 00:43:55;;;;;;;2.90;1.63;;;15.10;99.90;;;15.67;49.17;101783.91;6055695;23;97350;-45
2023/05/04 00:46:22;;;;;;;2.20;0.97;;;15.10;99.90;;;15.67;49.62;101783.91;6085300;23;96947;-44
2023/05/04 00:48:50;;;;;;;1.47;1.07;;;15.00;99.90;;;15.65;49.52;101783.13;6080479;22;97029;-46
2023/05/04 00:51:19;;;;;;;0.70;0.60;;;15.00;99.90;;;15.68;49.79;101782.13;6100189;22;97225;-43
2023/05/04 00:53:45;;;;;;;1.90;0.93;;;15.10;99.90;;;15.69;49.51;101765.22;6098957;23;97964;-43
2023/05/04 00:56:11;;;;;;;2.17;1.30;;;15.20;99.90;;;15.67;48.39;101762.63;6099212;22;97224;-43
2023/05/04 00:58:37;;;;;;;1.53;0.87;;;15.10;99.90;;;15.68;49.62;101764.38;6094062;22;97290;-47
2023/05/04 01:01:03;;;;;;;1.00;0.73;;;15.10;99.90;;;15.68;49.34;101760.84;6097901;22;97017;-46
2023/05/04 01:03:30;;;;;;;2.47;0.80;;;15.10;99.90;;;15.66;49.56;101766.22;6102247;22;97030;-48
2023/05/04 01:06:40;;;;;;;0.70;0.70;;;15.10;99.90;;;15.70;49.78;101767.81;6096844;22;97205;-50
2023/05/04 01:09:39;;;;;;;1.13;0.60;;;15.20;99.90;;;15.68;49.93;101767.03;6098445;22;97084;-44
2023/05/04 01:12:20;;;;;;;0.90;0.67;;;15.10;99.90;;;15.67;49.75;101757.31;6097923;22;96970;-48
2023/05/04 01:14:47;;;;;;;1.20;0.77;;;15.10;99.90;;;15.66;49.83;101758.25;6073970;23;97194;-49
2023/05/04 01:17:13;;;;;;;0.60;0.57;;;15.10;99.90;;;15.67;49.59;101757.31;6099268;22;96987;-49
2023/05/04 01:19:39;;;;;;;2.33;0.93;;;15.10;99.90;;;15.65;49.61;101767.16;6101270;22;97265;-50
2023/05/04 01:22:05;;;;;;;0.57;0.57;;;15.10;99.90;;;15.65;49.89;101764.50;6070670;23;102661;-44
2023/05/04 01:24:31;;;;;;;1.50;0.70;;;15.10;99.90;;;15.67;49.51;101752.00;6102759;22;110762;-48
2023/05/04 01:27:26;;;;;;;0.80;0.67;;;15.10;99.90;;;15.68;49.75;101750.19;6095724;22;97240;-46
2023/05/04 01:30:17;;;;;;;1.37;0.50;;;15.10;99.90;;;15.65;49.67;101753.00;6074265;23;96912;-42
2023/05/04 01:32:46;;;;;;;1.30;0.87;;;15.10;99.90;;;15.61;49.75;101746.91;6066849;23;96988;-46
2023/05/04 01:35:12;;;;;;;1.57;0.63;;;15.00;99.90;;;15.61;49.83;101752.22;6067855;22;97218;-48
2023/05/04 01:37:38;;;;;;;0.73;0.70;;;15.00;99.90;;;15.57;49.89;101745.25;6065278;23;97247;-45
2023/05/04 01:40:05;;;;;;;0.47;0.40;;;14.90;99.90;;;15.56;50.09;101746.19;6065637;22;97211;-47
2023/05/04 01:42:31;;;;;;;0.80;0.80;;;14.90;99.90;;;15.56;50.18;101743.53;6072652;22;97149;-43
2023/05/04 01:44:57;;;;;;;1.00;0.87;;;14.90;99.90;;;15.56;49.67;101735.56;6065352;22;97235;-47
2023/05/04 01:47:22;;;;;;;0.63;0.60;;;14.90;99.90;;;15.56;50.15;101740.88;6071155;22;101322;-49
2023/05/04 01:49:48;;;;;;;1.30;0.93;;;15.00;99.90;;;15.54;49.65;101734.75;6072186;23;96998;-47
2023/05/04 01:52:14;;;;;;;0.60;0.40;;;14.90;99.90;;;15.55;50.08;101736.47;6068015;23;99777;-44
2023/05/04 01:54:40;;;;;;;0.60;0.30;;;14.90;99.90;;;15.53;50.05;101737.47;6071891;22;97384;-50
2023/05/04 01:57:06;;;;;;;1.23;0.67;;;14.90;99.90;;;15.49;50.01;101747.38;6067911;22;101793;-45
2023/05/04 01:59:32;;;;;;;1.17;0.90;;;14.90;99.90;;;15.41;49.23;101745.00;6063705;23;96865;-43
2023/05/04 02:01:58;;;;;;;1.50;1.07;;;14.70;99.90;;;15.35;49.59;101744.38;6083761;22;97432;-42
2023/05/04 02:04:24;;;;;;;1.77;0.87;;;14.60;99.90;;;15.28;50.31;101756.16;6067798;23;114052;-43
2023/05/04 02:06:50;;;;;;;1.10;0.70;;;14.50;99.90;;;15.18;50.42;101748.50;6069285;23;97209;-50
2023/05/04 02:09:15;;;;;;;1.00;0.70;;;14.40;99.90;;;15.09;50.75;101751.53;6069900;22;97046;-43
2023/05/04 02:11:41;;;;;;;0.80;0.60;;;14.30;99.90;;;15.10;50.89;101755.94;6069559;23;97647;-46
2023/05/04 02:14:07;;;;;;;1.07;0.80;;;14.30;99.90;;;15.06;50.34;101753.44;6068995;22;99796;-49
2023/05/04 02:16:33;;;;;;;1.63;0.80;;;14.30;99.90;;;15.03;51.42;101754.41;6072793;22;98228;-48
2023/05/04 02:18:59;;;;;;;1.40;0.97;;;14.20;99.90;;;15.00;51.02;101749.22;6066755;22;103851;-43
2023/05/04 02:21:25;;;;;;;0.83;0.63;;;14.30;99.90;;;14.97;51.35;101754.63;6071660;23;96820;-44
2023/05/04 02:23:51;;;;;;;1.00;0.60;;;14.20;99.90;;;14.94;51.86;101752.09;6071942;22;97453;-45
2023/05/04 02:26:16;;;;;;;1.93;0.60;;;14.20;99.90;;;14.95;51.59;101751.19;6068827;23;97262;-46
2023/05/04 02:28:42;;;;;;;0.70;0.50;;;14.20;99.90;;;14.99;51.72;101747.47;6072692;22;96685;-45
2023/05/04 02:31:08;;;;;;;0.53;0.50;;;14.30;99.90;;;15.05;51.48;101744.59;6077782;22;97232;-46
2023/05/04 02:33:34;;;;;;;1.43;0.80;;;14.40;99.90;;;15.11;51.14;101741.72;6101371;22;117276;-45
2023/05/04 02:36:00;;;;;;;0.67;0.63;;;14.60;99.90;;;15.18;51.03;101743.19;6097604;22;105426;-43
2023/05/04 02:38:26;;;;;;;1.30;0.50;;;14.60;99.90;;;15.24;50.77;101747.44;6102830;23;97103;-43
2023/05/04 02:40:52;;;;;;;1.20;0.80;;;14.70;99.90;;;15.27;50.74;101749.09;6102019;22;114276;-43
2023/05/04 02:43:17;;;;;;;2.40;1.13;;;14.70;99.90;;;15.25;50.44;101748.31;6097416;22;106542;-44
2023/05/04 02:45:43;;;;;;;0.83;0.70;;;14.60;99.90;;;15.24;50.99;101743.91;6101210;22;96942;-43
2023/05/04 02:48:09;;;;;;;0.57;0.50;;;14.60;99.90;;;15.22;50.96;101743.97;6098296;22;97115;-46
2023/05/04 02:50:35;;;;;;;0.50;0.50;;;14.50;99.90;;;15.23;50.88;101739.53;6099535;22;96968;-42
2023/05/04 02:53:01;;;;;;;0.77;0.50;;;14.50;99.90;;;15.25;50.89;101735.00;6099307;22;97251;-46
2023/05/04 02:55:26;;;;;;;1.27;0.60;;;14.60;99.90;;;15.29;50.86;101736.63;6103156;22;97498;-43
2023/05/04 02:57:52;;;;;;;0.70;0.67;;;14.70;99.90;;;15.32;50.54;101739.16;6100038;22;97532;-41
2023/05/04 03:00:18;;;;;;;2.40;0.60;;;14.70;99.90;;;15.31;50.56;101738.28;6098644;22;97057;-43
2023/05/04 03:02:44;;;;;;;1.13;0.90;;;14.70;99.90;;;15.27;49.82;101735.81;6100050;22;97121;-41
2023/05/04 03:05:10;;;;;;;1.40;1.10;;;14.60;99.90;;;15.24;50.12;101733.28;6097548;22;96983;-46
2023/05/04 03:07:35;;;;;;;1.13;0.80;;;14.50;99.90;;;15.18;50.92;101727.25;6103865;22;97174;-43
2023/05/04 03:10:02;;;;;;;1.27;0.80;;;14.50;99.90;;;15.21;50.87;101733.41;6098639;23;97306;-43
2023/05/04 03:12:27;;;;;;;0.30;0.30;;;14.50;99.90;;;15.22;51.06;101728.03;6102173;22;98651;-42
2023/05/04 03:14:53;;;;;;;0.70;0.63;;;14.60;99.90;;;15.24;50.68;101725.31;6098423;22;103739;-43
2023/05/04 03:17:19;;;;;;;2.33;1.10;;;14.60;99.90;;;15.20;49.55;101721.03;6092259;22;114533;-43
2023/05/04 03:19:45;;;;;;;1.37;0.73;;;14.50;99.90;;;15.17;49.68;101725.53;6098889;22;109413;-47
2023/05/04 03:22:11;;;;;;;0.90;0.80;;;14.40;99.90;;;15.07;50.79;101725.94;6094493;22;97092;-47
2023/05/04 03:24:38;;;;;;;4.57;1.00;;;14.30;99.90;;;15.00;50.58;101724.44;6099762;22;98911;-43
2023/05/04 03:27:04;;;;;;;0.63;0.50;;;14.20;99.90;;;14.97;51.47;101722.75;6097186;22;96655;-44
2023/05/04 03:29:30;;;;;;;1.03;0.80;;;14.10;99.90;;;14.95;51.46;101721.94;6101137;23;104848;-47
2023/05/04 03:31:56;;;;;;;0.90;0.60;;;14.20;99.90;;;14.97;51.69;101719.22;6098506;22;97095;-43
2023/05/04 03:34:21;;;;;;;1.07;0.70;;;14.20;99.90;;;14.98;51.38;101719.16;6102489;22;116343;-42
2023/05/04 03:36:48;;;;;;;0.67;0.63;;;14.30;99.90;;;14.97;51.57;101709.47;6101392;22;97126;-45
2023/05/04 03:39:17;;;;;;;1.07;0.83;;;14.20;99.90;;;14.94;50.25;101714.91;6099875;22;96874;-43
2023/05/04 03:41:43;;;;;;;1.27;0.90;;;14.20;99.90;;;14.93;50.21;101710.53;6101604;22;100462;-45
2023/05/04 03:44:08;;;;;;;1.50;0.90;;;14.20;99.90;;;14.88;51.85;101712.47;6071161;22;97244;-43
2023/05/04 03:46:34;;;;;;;1.43;0.83;;;14.10;99.90;;;14.88;51.44;101717.78;6102951;22;97123;-42
2023/05/04 03:49:00;;;;;;;1.43;0.73;;;14.10;99.90;;;14.90;51.70;101715.94;6098208;22;97099;-44
2023/05/04 03:51:26;;;;;;;1.17;0.80;;;14.20;99.90;;;14.93;51.65;101715.84;6103427;22;97964;-43
2023/05/04 03:53:52;;;;;;;0.60;0.60;;;14.20;99.90;;;14.94;51.60;101712.25;6077686;23;104296;-45
2023/05/04 03:56:18;;;;;;;0.87;0.70;;;14.20;99.90;;;14.99;51.52;101701.44;6099360;22;111126;-43
2023/05/04 03:58:43;;;;;;;1.57;1.00;;;14.30;99.90;;;15.02;51.56;101696.88;6103316;22;96929;-45
2023/05/04 04:01:09;;;;;;;1.27;0.80;;;14.40;99.90;;;15.05;51.35;101699.44;6098359;22;97763;-43
2023/05/04 04:03:35;;;;;;;2.60;0.70;;;14.40;99.90;;;15.07;51.45;101697.59;6100284;23;96900;-43
2023/05/04 04:06:04;;;;;;;0.83;0.83;;;14.40;99.90;;;15.03;51.23;101695.06;6097557;23;96546;-43
2023/05/04 04:08:30;;;;;;;1.40;0.77;;;14.30;99.90;;;14.98;51.41;101689.09;6101856;22;97393;-43
2023/05/04 04:10:57;;;;;;;1.10;0.83;;;14.20;99.90;;;14.97;51.67;101685.56;6098369;22;97533;-47
2023/05/04 04:13:22;;;;;;;2.60;1.27;;;14.20;99.90;;;14.97;50.29;101690.00;6102756;22;98260;-44
2023/05/04 04:15:49;;;;;;;0.73;0.50;;;14.20;99.90;;;14.91;51.46;101691.13;6099756;22;97066;-42
2023/05/04 04:18:15;;;;;;;1.93;1.20;;;14.10;99.90;;;14.83;50.42;101693.19;6097648;22;97022;-44
2023/05/04 04:20:41;;;;;;;0.47;0.30;;;14.00;99.90;;;14.78;52.01;101701.31;6103066;22;97964;-42
2023/05/04 04:23:06;;;;;;;1.50;0.93;;;13.90;99.90;;;14.78;51.89;101697.81;6072071;22;98745;-44
2023/05/04 04:25:32;;;;;;;1.80;0.77;;;13.90;99.90;;;14.79;52.34;101702.19;6100366;22;96807;-47
2023/05/04 04:27:58;;;;;;;1.60;0.70;;;14.00;99.90;;;14.83;51.95;101699.34;6091631;22;97333;-43
2023/05/04 04:30:24;;;;;;;0.73;0.50;;;14.10;99.90;;;14.88;51.91;101700.03;6092811;23;104364;-42
2023/05/04 04:32:50;;;;;;;0.80;0.50;;;14.20;99.90;;;14.96;51.94;101705.09;6100793;22;99238;-43
2023/05/04 04:35:16;;;;;;;1.47;0.93;;;14.30;99.90;;;15.02;51.73;101703.97;6096236;22;97460;-44
2023/05/04 04:37:41;;;;;;;1.13;0.60;;;14.40;99.90;;;15.04;51.38;101710.97;6094163;22;97262;-45
2023/05/04 04:40:08;;;;;;;0.90;0.70;;;14.40;99.90;;;15.09;51.48;101710.81;6095930;22;113950;-43
2023/05/04 04:42:34;;;;;;;2.53;1.10;;;14.50;99.90;;;15.10;50.69;101707.22;6101753;22;98051;-43
2023/05/04 04:45:04;;;;;;;0.90;0.40;;;14.40;99.90;;;15.08;51.44;101707.28;6097435;22;97002;-42
2023/05/04 04:47:31;;;;;;;1.00;0.50;;;14.40;99.90;;;15.12;51.23;101716.00;6101850;22;96810;-44
2023/05/04 04:49:57;;;;;;;1.53;1.03;;;14.50;99.90;;;15.13;51.23;101705.31;6096417;23;97399;-45
2023/05/04 04:52:23;;;;;;;1.60;1.33;;;14.50;99.90;;;15.12;50.56;101716.88;6102489;22;97015;-41
2023/05/04 04:54:50;;;;;;;0.70;0.60;;;14.40;99.90;;;15.13;51.38;101713.28;6099816;23;97088;-43
2023/05/04 04:57:15;;;;;;;0.80;0.57;;;14.40;99.90;;;15.12;51.05;101706.22;6097459;22;98826;-43
2023/05/04 04:59:41;;;;;;;1.00;0.43;;;14.40;99.90;;;15.12;51.40;101710.69;6102461;22;97009;-43
2023/05/04 05:02:08;;;;;;;1.10;0.90;;;14.40;99.90;;;15.09;51.17;101709.03;6070916;23;120599;-43
2023/05/04 05:04:36;;;;;;;1.00;0.73;;;14.40;99.90;;;15.09;51.21;101706.34;6103739;22;96952;-42
2023/05/04 05:07:02;;;;;;;3.30;1.40;;;14.40;99.90;;;15.08;50.89;101704.63;6099000;22;96689;-43
2023/05/04 05:09:28;;;;;;;2.47;1.50;;;14.30;99.90;;;15.02;50.08;101710.16;6098807;23;97450;-42
2023/05/04 05:11:54;;;;;;;2.80;1.63;;;14.30;99.90;;;14.95;50.93;101713.13;6102078;22;96711;-44
2023/05/04 05:14:20;;;;;;;2.27;1.07;;;14.20;99.90;;;14.91;51.72;101712.38;6071376;23;97085;-42
2023/05/04 05:16:46;;;;;;;4.37;1.50;;;14.10;99.90;;;14.91;51.76;101717.69;6101225;23;102517;-44
2023/05/04 05:19:12;;;;;;;0.70;0.70;;;14.10;99.90;;;14.91;51.90;101723.00;6097946;22;96547;-43
2023/05/04 05:21:38;;;;;;;0.90;0.67;;;14.20;99.90;;;14.91;51.61;101716.81;6100902;22;97028;-42
2023/05/04 05:24:04;;;;;;;1.17;1.07;;;14.20;99.90;;;14.94;51.74;101722.00;6096842;22;97046;-46
2023/05/04 05:26:30;;;;;;;2.00;0.80;;;14.20;99.90;;;14.99;51.71;101715.59;6102003;23;97380;-42
2023/05/04 05:28:56;;;;;;;2.80;0.60;;;14.40;99.90;;;15.07;51.53;101716.19;6096969;22;97565;-53
2023/05/04 05:31:22;;;;;;;0.97;0.83;;;14.50;99.90;;;15.13;51.13;101718.59;6102035;22;96742;-43
2023/05/04 05:33:48;;;;;;;1.67;1.40;;;14.60;99.90;;;15.18;51.05;101710.44;6099828;22;107722;-44
2023/05/04 05:36:13;;;;;;;2.30;1.47;;;14.60;99.90;;;15.22;50.39;101705.91;6097715;22;97073;-42
2023/05/04 05:38:39;;;;;;;1.13;0.90;;;14.60;99.90;;;15.26;50.81;101704.84;6103130;22;96802;-43
2023/05/04 05:41:05;;;;;;;1.53;0.80;;;14.70;99.90;;;15.31;50.89;101705.53;6098785;22;96551;-42
2023/05/04 05:43:32;;;;;;;1.73;0.70;;;14.80;99.90;;;15.45;50.67;101695.22;6105241;22;97420;-42
2023/05/04 05:45:58;;;;;;;1.87;0.87;;;15.10;99.90;;;15.57;50.14;101701.84;6101910;22;97489;-43
2023/05/04 05:48:23;;;;;;;1.73;0.80;;;15.20;99.90;;;15.72;49.97;101694.16;6105147;23;97449;-42
2023/05/04 05:50:49;;;;;;;1.00;0.70;;;15.50;99.90;;;15.89;49.65;101697.91;6103872;23;97384;-42
2023/05/04 05:53:15;;;;;;;0.70;0.67;;;15.70;99.90;;;16.06;49.10;101690.97;6097861;22;97232;-42
2023/05/04 05:55:41;;;;;;;5.57;1.70;;;16.00;99.90;;;16.18;48.18;101694.88;6100137;23;96894;-50
2023/05/04 05:58:07;;;;;;;1.73;0.80;;;16.20;99.90;;;16.34;48.28;101687.97;6098384;22;97484;-44
2023/05/04 06:00:33;;;;;;;1.10;0.60;;;16.30;99.90;;;16.45;48.15;101682.19;6101409;22;97130;-44
2023/05/04 06:02:59;;;;;;;1.27;0.53;;;16.50;99.90;;;16.56;47.66;101689.72;6095686;22;96967;-47
2023/05/04 06:05:25;;;;;;;0.57;0.50;;;16.60;99.90;;;16.59;47.65;101687.78;6101803;23;96540;-46
2023/05/04 06:07:51;;;;;;;0.60;0.60;;;16.70;99.90;;;16.65;47.49;101681.31;6101560;23;97108;-43
2023/05/04 06:10:17;;;;;;;0.90;0.50;;;16.80;99.90;;;16.73;47.00;101684.53;6098182;22;96911;-50
2023/05/04 06:12:42;;;;;;;0.80;0.43;;;16.90;99.90;;;16.78;46.93;101681.66;6101052;23;97116;-43
2023/05/04 06:15:09;;;;;;;0.67;0.50;;;17.00;99.90;;;16.86;46.64;101677.72;6070496;22;97116;-45
2023/05/04 06:17:35;;;;;;;0.80;0.60;;;17.10;99.90;;;16.90;46.37;101679.28;6103133;22;97150;-43
2023/05/04 06:20:00;;;;;;;1.50;0.70;;;17.10;99.90;;;16.94;46.59;101675.56;6096533;23;103210;-43
2023/05/04 06:22:26;;;;;;;1.60;0.60;;;17.10;99.90;;;17.02;46.31;101671.66;6100948;23;97089;-46
2023/05/04 06:24:52;;;;;;;0.57;0.57;;;17.20;99.90;;;17.04;46.34;101675.13;6103566;22;96855;-44
2023/05/04 06:27:19;;;;;;;0.63;0.50;;;17.20;99.90;;;17.02;46.22;101675.19;6096278;22;98571;-49
2023/05/04 06:29:51;;;;;;;0.90;0.67;;;17.20;99.90;;;17.07;46.07;101669.66;6063102;23;97272;-46
2023/05/04 06:32:17;;;;;;;0.67;0.33;;;17.30;99.90;;;17.04;46.12;101667.13;6097048;23;97510;-41
2023/05/04 06:34:43;;;;;;;0.70;0.70;;;17.30;99.90;;;17.05;46.28;101666.19;6092557;23;97018;-48
2023/05/04 06:37:08;;;;;;;0.53;0.40;;;17.30;99.90;;;17.04;46.10;101664.47;6091640;22;97126;-47
2023/05/04 06:39:34;;;;;;;0.90;0.70;;;17.30;99.90;;;17.05;46.00;101655.53;6101084;23;97526;-46
2023/05/04 06:42:01;;;;;;;0.90;0.60;;;17.30;99.90;;;17.09;46.03;101658.00;6093840;22;96917;-43
2023/05/04 06:44:27;;;;;;;0.90;0.60;;;17.40;99.90;;;17.15;45.74;101664.84;6099006;22;96673;-45
2023/05/04 06:46:53;;;;;;;0.63;0.63;;;17.40;99.90;;;17.17;45.72;101674.47;6095869;22;97457;-41
2023/05/04 06:49:19;;;;;;;2.33;1.10;;;17.40;99.90;;;17.23;42.77;101671.53;6089566;22;97088;-47
2023/05/04 06:51:45;;;;;;;1.40;1.27;;;17.40;98.90;;;17.17;42.41;101670.94;6101365;23;96649;-41
2023/05/04 06:54:11;;;;;;;2.33;1.47;;;17.20;98.60;;;17.13;44.12;101664.91;6094066;22;97149;-44
2023/05/04 06:56:38;;;;;;;1.80;1.40;;;17.00;99.80;;;16.99;44.77;101661.16;6099264;22;98328;-47
2023/05/04 06:59:05;;;;;;;2.67;1.60;;;16.90;99.90;;;16.82;44.17;101665.47;6096922;22;98607;-41
2023/05/04 07:01:31;;;;;;;2.63;1.80;;;16.70;99.90;;;16.80;44.55;101663.81;6099321;23;97666;-45
2023/05/04 07:03:57;;;;;;;1.30;0.80;;;16.60;99.90;;;16.81;45.57;101663.75;6099067;22;97677;-41
2023/05/04 07:06:26;;;;;;;4.47;1.60;;;16.60;99.90;;;16.74;43.83;101667.59;6100424;23;97976;-41
2023/05/04 07:08:51;;;;;;;1.03;0.57;;;16.60;99.90;;;16.77;46.52;101662.13;6100618;22;97068;-42
2023/05/04 07:11:17;;;;;;;1.77;1.20;;;16.60;99.90;;;16.69;43.53;101658.97;6097372;22;120078;-46
2023/05/04 07:13:43;;;;;;;2.77;1.60;;;16.60;99.50;;;16.62;43.07;101655.66;6101061;22;97016;-41
2023/05/04 07:16:09;;;;;;;2.57;1.33;;;16.50;99.30;;;16.58;45.55;101655.88;6069837;23;98536;-50
2023/05/04 07:18:35;;;;;;;1.30;1.20;;;16.50;99.90;;;16.55;46.33;101656.03;6075474;23;96847;-42
2023/05/04 07:21:01;;;;;;;0.87;0.50;;;16.40;99.90;;;16.66;47.07;101653.75;6097140;22;97305;-44
2023/05/04 07:23:27;;;;;;;1.37;0.80;;;16.60;99.90;;;16.71;46.53;101645.56;6102469;22;96609;-47
2023/05/04 07:25:52;;;;;;;1.00;0.70;;;16.70;99.90;;;16.76;46.03;101649.75;6100673;22;97901;-48
2023/05/04 07:31:17;;;;;;;1.33;0.67;;;16.80;99.90;;;16.75;46.78;101637.34;5963427;22;98392;-79
2023/05/04 07:33:46;;;;;;;1.10;0.60;;;16.90;99.90;;;16.83;46.38;101639.69;6088172;22;97025;-78
2023/05/04 07:36:11;;;;;;;0.87;0.77;;;17.00;99.90;;;16.81;46.65;101630.91;6066055;23;97184;-77
2023/05/04 07:38:37;;;;;;;0.97;0.57;;;17.10;99.90;;;16.87;46.58;101642.13;6066819;23;97694;-78
2023/05/04 07:41:03;;;;;;;1.37;0.87;;;17.10;99.90;;;16.94;46.13;101632.94;6065890;23;97288;-78
2023/05/04 07:43:29;;;;;;;2.30;0.83;;;17.20;99.90;;;17.04;44.00;101637.81;6070207;23;97074;-78
2023/05/04 07:45:55;;;;;;;0.93;0.50;;;17.20;99.50;;;17.12;45.78;101627.66;6068934;23;99924;-79
2023/05/04 07:48:21;;;;;;;1.40;0.63;;;17.30;99.90;;;17.09;45.80;101631.34;6063714;23;101746;-77
2023/05/04 07:50:47;;;;;;;0.63;0.50;;;17.30;99.90;;;17.11;45.75;101623.28;6070142;23;97053;-78
2023/05/04 07:53:13;;;;;;;0.60;0.60;;;17.30;99.90;;;17.08;45.77;101623.41;6067797;22;96844;-78
2023/05/04 07:55:39;;;;;;;7.00;1.10;;;17.30;99.90;;;17.21;44.18;101619.19;6068204;22;104077;-77
2023/05/04 07:58:05;;;;;;;2.47;1.33;;;17.40;99.60;;;17.29;42.38;101627.72;6063299;22;97288;-77
2023/05/04 08:00:31;;;;;;;0.60;0.60;;;17.40;98.10;;;17.13;46.01;101613.41;6070156;23;97667;-76
2023/05/04 08:21:41;;;;;;;1.17;1.03;;;17.40;99.90;;;17.31;44.80;101592.97;6059529;22;97098;-77
2023/05/04 08:24:08;;;;;;;1.27;1.10;;;17.50;99.90;;;17.26;45.57;101601.19;6043868;22;98996;-76
2023/05/04 08:26:37;;;;;;;1.77;1.40;;;17.50;99.90;;;17.42;43.16;101591.50;6068625;23;97103;-76
2023/05/04 08:29:09;;;;;;;3.03;1.07;;;17.50;98.60;;;17.51;42.85;101592.88;6062750;22;96914;-77
2023/05/04 08:31:35;;;;;;;1.30;0.93;;;17.60;98.50;;;17.48;43.63;101580.53;6067683;22;97302;-76
2023/05/04 08:34:02;;;;;;;1.40;0.60;;;17.70;99.20;;;17.32;45.55;101584.88;6056541;23;98196;-77
2023/05/04 08:51:14;;;;;;;2.03;1.30;;;17.70;99.80;;;17.44;44.98;101581.63;6068550;22;96934;-76
2023/05/04 08:53:44;;;;;;;1.73;1.30;;;17.70;99.80;;;17.52;44.60;101576.78;6069744;23;96919;-77
2023/05/04 08:56:13;;;;;;;1.73;1.43;;;17.70;99.50;;;17.38;45.14;101573.94;6041732;23;97557;-76
2023/05/04 08:59:00;;;;;;;0.80;0.77;;;17.60;99.90;;;17.23;45.82;101570.22;6068671;23;97063;-77
2023/05/04 09:09:34;;;;;;;3.07;0.80;;;17.50;99.90;;;17.03;46.14;101580.09;6072342;23;97187;-76
2023/05/04 09:12:00;;;;;;;1.20;0.90;;;17.40;99.90;;;17.05;46.13;101576.44;6087128;22;96667;-76
2023/05/04 09:19:04;;;;;;;1.20;0.90;;;17.60;99.90;;;17.19;45.86;101578.44;6072778;23;97212;-76
2023/05/04 10:07:40;;;;;;;2.77;1.77;;;18.10;99.10;;;17.88;44.38;101500.28;5951211;23;97253;-77
2023/05/04 10:10:26;;;;;;;1.03;0.93;;;18.20;99.20;;;17.72;44.98;101494.88;5868767;23;97120;-77
2023/05/04 10:12:52;;;;;;;1.30;1.03;;;18.10;99.40;;;17.69;45.07;101493.25;5938446;23;98580;-77
2023/05/04 10:15:21;;;;;;;2.30;1.10;;;18.00;99.50;;;17.72;44.83;101490.41;6049842;22;97253;-79
2023/05/04 10:22:03;;;;;;;1.33;1.17;;;18.00;99.50;;;17.88;44.45;101489.59;6101314;22;96900;-77
2023/05/04 10:24:38;;;;;;;1.33;1.23;;;18.10;99.20;;;17.83;44.71;101490.72;6078877;23;98724;-77
2023/05/04 10:27:49;;;;;;;2.60;1.53;;;18.10;99.30;;;18.05;44.01;101474.41;6098095;22;97032;-78
2023/05/04 10:30:17;;;;;;;2.23;1.20;;;18.30;98.50;;;17.99;44.24;101465.88;6046747;22;99795;-78
2023/05/04 10:32:43;;;;;;;2.07;0.83;;;18.30;98.70;;;17.92;44.48;101461.81;6074513;23;97061;-77
2023/05/04 10:35:10;;;;;;;0.97;0.70;;;18.30;98.90;;;17.82;44.69;101456.13;6096365;22;96790;-77
2023/05/04 10:37:36;;;;;;;1.53;1.13;;;18.20;99.00;;;17.88;44.74;101450.44;6103242;22;97615;-77
2023/05/04 10:40:09;;;;;;;2.27;1.30;;;18.20;99.20;;;18.18;41.42;101447.91;6070464;22;97806;-78
2023/05/04 10:42:43;;;;;;;2.40;1.40;;;18.40;97.30;;;18.09;43.86;101438.63;6094630;22;97138;-77
2023/05/04 10:45:09;;;;;;;1.50;1.03;;;18.40;98.50;;;18.11;43.76;101439.38;6040957;22;97325;-78
2023/05/04 10:51:26;;;;;;;1.57;1.17;;;18.40;98.30;;;17.95;44.43;101435.84;5899070;23;96881;-78
2023/05/04 10:53:52;;;;;;;1.27;1.17;;;18.30;98.60;;;17.96;44.36;101432.22;6069523;23;97446;-78
2023/05/04 10:56:27;;;;;;;2.77;1.10;;;18.30;98.40;;;17.89;44.36;101429.94;6064557;23;97294;-77
2023/05/04 11:39:36;;;;;;;1.73;1.20;;;18.00;98.80;;;17.50;45.40;101348.38;5997542;23;97105;-77
2023/05/04 11:42:07;;;;;;;1.60;1.07;;;17.90;99.10;;;17.50;45.29;101343.94;5974831;23;96721;-77
2023/05/04 11:44:34;;;;;;;0.90;0.83;;;17.90;99.10;;;17.48;45.23;101335.13;6005582;23;99380;-77
2023/05/04 11:58:09;;;;;;;1.60;1.03;;;17.80;99.30;;;17.73;44.09;101332.03;6084602;22;97364;-78
2023/05/04 12:00:43;;;;;;;1.23;0.87;;;18.10;98.30;;;17.76;44.46;101328.34;6064433;23;97110;-79
2023/05/04 12:03:11;;;;;;;0.80;0.80;;;18.10;98.40;;;18.06;38.53;101326.63;6036256;22;96939;-77
2023/05/04 12:05:38;;;;;;;1.60;1.20;;;18.20;94.10;;;18.09;42.90;101321.16;6068047;23;97089;-77
2023/05/04 12:08:06;;;;;;;0.87;0.80;;;18.40;97.50;;;18.32;38.07;101322.50;6090387;22;97409;-78
2023/05/04 12:10:33;;;;;;;1.70;1.03;;;18.50;93.80;;;18.27;42.49;101310.34;6067627;23;97624;-77
2023/05/04 12:13:02;;;;;;;1.13;0.97;;;18.60;96.90;;;18.30;40.18;101316.38;6086870;22;96940;-78
2023/05/04 12:15:33;;;;;;;0.87;0.87;;;18.60;95.80;;;18.36;42.42;101317.81;6068893;23;97477;-76
2023/05/04 12:17:59;;;;;;;1.10;1.00;;;18.70;96.70;;;18.43;41.89;101314.72;6086994;22;97370;-78
2023/05/04 12:20:27;;;;;;;0.87;0.70;;;18.70;96.00;;;18.28;43.12;101322.75;6067839;23;97929;-77
2023/05/04 12:23:15;;;;;;;1.50;1.00;;;18.60;97.20;;;18.20;43.40;101301.81;6042055;23;97248;-78
2023/05/04 12:25:41;;;;;;;0.73;0.73;;;18.60;97.20;;;18.46;39.47;101307.47;6089037;22;97525;-77
2023/05/04 12:28:06;;;;;;;0.93;0.83;;;18.60;94.50;;;18.61;40.19;101307.44;6059107;22;97136;-77
2023/05/04 12:30:32;;;;;;;1.10;0.90;;;18.90;94.90;;;18.59;42.11;101309.34;6065841;23;97607;-77
2023/05/04 12:32:58;;;;;;;1.70;1.13;;;18.90;96.30;;;18.81;41.27;101302.78;6061181;22;108258;-78
2023/05/04 12:35:25;;;;;;;1.10;0.83;;;19.00;95.30;;;18.95;40.64;101294.75;6066308;23;99088;-77
2023/05/04 12:37:50;;;;;;;1.83;1.07;;;19.30;94.50;;;18.66;41.83;101300.06;6066437;23;97009;-77
2023/05/04 12:40:16;;;;;;;1.00;0.90;;;19.20;95.50;;;18.54;42.19;101290.06;6062832;22;96697;-77
2023/05/04 12:42:43;;;;;;;1.90;1.30;;;19.00;95.90;;;18.51;41.54;101290.22;6093934;22;97156;-76
2023/05/04 12:45:09;;;;;;;1.20;1.07;;;18.90;95.50;;;19.07;34.48;101285.13;6039816;23;97365;-76
2023/05/04 12:51:16;;;;;;;4.10;2.63;;;19.40;94.30;;;18.81;39.67;101281.41;6092980;22;96547;-76